sensor_id;sensor_type;location;lat;lon;timestamp;P1;durP1;ratioP1;P2;durP2;ratioP2
23712;SDS011;12035;49.978;8.298;2022-09-12T00:01:34;10.07;;;5.57;;
23712;SDS011;12035;49.978;8.298;2022-09-12T00:06:32;7.68;;;5.00;;
23712;SDS011;12035;49.978;8.298;2022-09-12T00:11:33;10.73;;;5.60;;
23712;SDS011;12035;49.978;8.298;2022-09-12T00:16:33;7.78;;;5.18;;
23712;SDS011;12035;49.978;8.298;2022-09-12T00:21:31;8.90;;;5.32;;
23712;SDS011;12035;49.978;8.298;2022-09-12T00:26:29;9.75;;;6.22;;
23712;SDS011;12035;49.978;8.298;2022-09-12T00:31:28;7.07;;;4.82;;
23712;SDS011;12035;49.978;8.298;2022-09-12T00:36:26;9.43;;;5.25;;
23712;SDS011;12035;49.978;8.298;2022-09-12T00:41:25;7.78;;;5.63;;
23712;SDS011;12035;49.978;8.298;2022-09-12T00:46:27;11.05;;;4.97;;
23712;SDS011;12035;49.978;8.298;2022-09-12T00:51:30;8.10;;;5.07;;
23712;SDS011;12035;49.978;8.298;2022-09-12T00:56:30;8.20;;;5.18;;
23712;SDS011;12035;49.978;8.298;2022-09-12T01:01:28;7.45;;;5.00;;
23712;SDS011;12035;49.978;8.298;2022-09-12T01:06:27;8.27;;;5.60;;
23712;SDS011;12035;49.978;8.298;2022-09-12T01:11:29;6.05;;;3.90;;
23712;SDS011;12035;49.978;8.298;2022-09-12T01:16:27;6.07;;;4.45;;
23712;SDS011;12035;49.978;8.298;2022-09-12T01:21:29;6.05;;;4.22;;
23712;SDS011;12035;49.978;8.298;2022-09-12T01:26:47;6.25;;;3.90;;
23712;SDS011;12035;49.978;8.298;2022-09-12T01:32:09;8.25;;;4.75;;
23712;SDS011;12035;49.978;8.298;2022-09-12T01:37:19;4.85;;;3.72;;
23712;SDS011;12035;49.978;8.298;2022-09-12T01:42:25;9.07;;;5.93;;
23712;SDS011;12035;49.978;8.298;2022-09-12T01:47:33;9.38;;;6.50;;
23712;SDS011;12035;49.978;8.298;2022-09-12T01:52:37;7.20;;;5.03;;
23712;SDS011;12035;49.978;8.298;2022-09-12T01:57:39;11.32;;;6.90;;
23712;SDS011;12035;49.978;8.298;2022-09-12T02:02:50;8.93;;;5.43;;
23712;SDS011;12035;49.978;8.298;2022-09-12T02:07:52;9.50;;;6.55;;
23712;SDS011;12035;49.978;8.298;2022-09-12T02:12:53;9.75;;;6.03;;
23712;SDS011;12035;49.978;8.298;2022-09-12T02:17:57;8.68;;;6.32;;
23712;SDS011;12035;49.978;8.298;2022-09-12T02:22:58;8.77;;;5.45;;
23712;SDS011;12035;49.978;8.298;2022-09-12T02:27:57;6.93;;;5.32;;
23712;SDS011;12035;49.978;8.298;2022-09-12T02:33:04;8.93;;;6.30;;
23712;SDS011;12035;49.978;8.298;2022-09-12T02:38:09;10.33;;;6.87;;
23712;SDS011;12035;49.978;8.298;2022-09-12T02:43:10;11.32;;;8.13;;
23712;SDS011;12035;49.978;8.298;2022-09-12T02:53:09;9.20;;;6.40;;
23712;SDS011;12035;49.978;8.298;2022-09-12T02:58:07;8.20;;;5.28;;
23712;SDS011;12035;49.978;8.298;2022-09-12T03:03:14;10.77;;;6.35;;
23712;SDS011;12035;49.978;8.298;2022-09-12T03:08:36;9.38;;;6.22;;
23712;SDS011;12035;49.978;8.298;2022-09-12T03:14:04;10.15;;;6.05;;
23712;SDS011;12035;49.978;8.298;2022-09-12T03:19:18;8.88;;;5.95;;
23712;SDS011;12035;49.978;8.298;2022-09-12T03:24:23;8.52;;;6.80;;
23712;SDS011;12035;49.978;8.298;2022-09-12T03:29:27;10.75;;;7.57;;
23712;SDS011;12035;49.978;8.298;2022-09-12T03:34:26;10.23;;;7.03;;
23712;SDS011;12035;49.978;8.298;2022-09-12T03:39:24;9.10;;;6.82;;
23712;SDS011;12035;49.978;8.298;2022-09-12T03:44:22;14.68;;;8.55;;
23712;SDS011;12035;49.978;8.298;2022-09-12T03:49:19;11.25;;;8.20;;
23712;SDS011;12035;49.978;8.298;2022-09-12T03:59:15;11.52;;;8.02;;
23712;SDS011;12035;49.978;8.298;2022-09-12T04:09:09;11.13;;;7.73;;
23712;SDS011;12035;49.978;8.298;2022-09-12T04:14:07;15.82;;;8.57;;
23712;SDS011;12035;49.978;8.298;2022-09-12T04:19:04;10.30;;;6.82;;
23712;SDS011;12035;49.978;8.298;2022-09-12T04:28:58;7.53;;;5.57;;
23712;SDS011;12035;49.978;8.298;2022-09-12T04:33:57;34.42;;;6.65;;
23712;SDS011;12035;49.978;8.298;2022-09-12T04:38:56;8.50;;;5.88;;
23712;SDS011;12035;49.978;8.298;2022-09-12T04:43:57;9.60;;;6.80;;
23712;SDS011;12035;49.978;8.298;2022-09-12T04:48:58;11.82;;;7.40;;
23712;SDS011;12035;49.978;8.298;2022-09-12T04:53:56;11.95;;;7.80;;
23712;SDS011;12035;49.978;8.298;2022-09-12T04:58:55;9.75;;;6.35;;
23712;SDS011;12035;49.978;8.298;2022-09-12T05:03:55;9.75;;;7.15;;
23712;SDS011;12035;49.978;8.298;2022-09-12T05:08:56;10.73;;;7.25;;
23712;SDS011;12035;49.978;8.298;2022-09-12T05:13:54;10.15;;;6.47;;
23712;SDS011;12035;49.978;8.298;2022-09-12T05:18:51;8.35;;;5.60;;
23712;SDS011;12035;49.978;8.298;2022-09-12T05:23:49;8.57;;;5.38;;
23712;SDS011;12035;49.978;8.298;2022-09-12T05:28:50;9.82;;;6.20;;
23712;SDS011;12035;49.978;8.298;2022-09-12T05:33:48;7.60;;;5.32;;
23712;SDS011;12035;49.978;8.298;2022-09-12T05:38:47;7.30;;;5.47;;
23712;SDS011;12035;49.978;8.298;2022-09-12T05:43:45;9.60;;;6.38;;
23712;SDS011;12035;49.978;8.298;2022-09-12T05:48:47;10.23;;;5.68;;
23712;SDS011;12035;49.978;8.298;2022-09-12T05:53:46;9.48;;;5.90;;
23712;SDS011;12035;49.978;8.298;2022-09-12T05:58:46;7.55;;;5.55;;
23712;SDS011;12035;49.978;8.298;2022-09-12T06:03:50;7.88;;;6.22;;
23712;SDS011;12035;49.978;8.298;2022-09-12T06:08:49;9.40;;;6.57;;
23712;SDS011;12035;49.978;8.298;2022-09-12T06:13:48;8.55;;;6.15;;
23712;SDS011;12035;49.978;8.298;2022-09-12T06:18:46;13.82;;;6.00;;
23712;SDS011;12035;49.978;8.298;2022-09-12T06:23:45;9.60;;;6.05;;
23712;SDS011;12035;49.978;8.298;2022-09-12T06:28:43;7.75;;;5.22;;
23712;SDS011;12035;49.978;8.298;2022-09-12T06:33:42;9.63;;;5.68;;
23712;SDS011;12035;49.978;8.298;2022-09-12T06:38:40;8.32;;;5.72;;
23712;SDS011;12035;49.978;8.298;2022-09-12T06:43:40;8.18;;;6.30;;
23712;SDS011;12035;49.978;8.298;2022-09-12T06:48:37;8.93;;;6.50;;
23712;SDS011;12035;49.978;8.298;2022-09-12T06:53:34;8.63;;;6.13;;
23712;SDS011;12035;49.978;8.298;2022-09-12T06:58:32;7.57;;;6.47;;
23712;SDS011;12035;49.978;8.298;2022-09-12T07:03:32;8.75;;;6.05;;
23712;SDS011;12035;49.978;8.298;2022-09-12T07:08:29;10.50;;;6.30;;
23712;SDS011;12035;49.978;8.298;2022-09-12T07:13:27;7.93;;;5.78;;
23712;SDS011;12035;49.978;8.298;2022-09-12T07:18:24;7.30;;;5.88;;
23712;SDS011;12035;49.978;8.298;2022-09-12T07:23:22;8.63;;;6.47;;
23712;SDS011;12035;49.978;8.298;2022-09-12T07:28:19;7.85;;;6.10;;
23712;SDS011;12035;49.978;8.298;2022-09-12T07:33:16;7.88;;;6.15;;
23712;SDS011;12035;49.978;8.298;2022-09-12T07:38:13;9.32;;;6.40;;
23712;SDS011;12035;49.978;8.298;2022-09-12T07:43:12;8.60;;;6.03;;
23712;SDS011;12035;49.978;8.298;2022-09-12T07:48:09;8.13;;;6.22;;
23712;SDS011;12035;49.978;8.298;2022-09-12T07:53:06;7.32;;;5.63;;
23712;SDS011;12035;49.978;8.298;2022-09-12T07:58:03;7.30;;;5.55;;
23712;SDS011;12035;49.978;8.298;2022-09-12T08:03:02;10.07;;;5.75;;
23712;SDS011;12035;49.978;8.298;2022-09-12T08:08:01;9.52;;;5.60;;
23712;SDS011;12035;49.978;8.298;2022-09-12T08:12:58;6.25;;;5.10;;
23712;SDS011;12035;49.978;8.298;2022-09-12T08:17:57;9.07;;;6.07;;
23712;SDS011;12035;49.978;8.298;2022-09-12T08:22:55;7.15;;;5.63;;
23712;SDS011;12035;49.978;8.298;2022-09-12T08:27:53;7.78;;;5.68;;
23712;SDS011;12035;49.978;8.298;2022-09-12T08:32:50;8.88;;;5.93;;
23712;SDS011;12035;49.978;8.298;2022-09-12T08:37:47;7.25;;;4.80;;
23712;SDS011;12035;49.978;8.298;2022-09-12T08:42:48;7.53;;;5.38;;
23712;SDS011;12035;49.978;8.298;2022-09-12T08:47:54;7.40;;;5.05;;
23712;SDS011;12035;49.978;8.298;2022-09-12T08:52:53;7.45;;;5.82;;
23712;SDS011;12035;49.978;8.298;2022-09-12T08:57:55;7.88;;;5.85;;
23712;SDS011;12035;49.978;8.298;2022-09-12T09:08:53;9.52;;;5.82;;
23712;SDS011;12035;49.978;8.298;2022-09-12T09:14:02;7.22;;;5.53;;
23712;SDS011;12035;49.978;8.298;2022-09-12T09:19:33;8.80;;;5.40;;
23712;SDS011;12035;49.978;8.298;2022-09-12T09:24:36;9.00;;;6.00;;
23712;SDS011;12035;49.978;8.298;2022-09-12T09:29:39;10.27;;;6.03;;
23712;SDS011;12035;49.978;8.298;2022-09-12T09:34:40;8.02;;;4.65;;
23712;SDS011;12035;49.978;8.298;2022-09-12T09:39:44;5.50;;;4.13;;
23712;SDS011;12035;49.978;8.298;2022-09-12T09:44:55;7.13;;;5.60;;
23712;SDS011;12035;49.978;8.298;2022-09-12T09:49:55;9.32;;;5.45;;
23712;SDS011;12035;49.978;8.298;2022-09-12T09:54:54;7.38;;;5.22;;
23712;SDS011;12035;49.978;8.298;2022-09-12T09:59:54;7.40;;;4.70;;
23712;SDS011;12035;49.978;8.298;2022-09-12T10:04:52;7.28;;;4.63;;
23712;SDS011;12035;49.978;8.298;2022-09-12T10:10:03;6.22;;;4.57;;
23712;SDS011;12035;49.978;8.298;2022-09-12T10:15:16;6.43;;;4.28;;
23712;SDS011;12035;49.978;8.298;2022-09-12T10:20:28;7.57;;;4.80;;
23712;SDS011;12035;49.978;8.298;2022-09-12T10:25:29;7.88;;;3.75;;
23712;SDS011;12035;49.978;8.298;2022-09-12T10:30:28;7.88;;;4.20;;
23712;SDS011;12035;49.978;8.298;2022-09-12T10:35:27;6.47;;;4.80;;
23712;SDS011;12035;49.978;8.298;2022-09-12T10:40:28;7.65;;;4.10;;
23712;SDS011;12035;49.978;8.298;2022-09-12T10:45:35;5.38;;;4.18;;
23712;SDS011;12035;49.978;8.298;2022-09-12T10:50:34;4.80;;;3.92;;
23712;SDS011;12035;49.978;8.298;2022-09-12T10:55:36;5.07;;;4.10;;
23712;SDS011;12035;49.978;8.298;2022-09-12T11:00:33;5.38;;;3.33;;
23712;SDS011;12035;49.978;8.298;2022-09-12T11:05:39;4.60;;;3.08;;
23712;SDS011;12035;49.978;8.298;2022-09-12T11:10:51;4.82;;;3.13;;
23712;SDS011;12035;49.978;8.298;2022-09-12T11:15:58;4.10;;;2.90;;
23712;SDS011;12035;49.978;8.298;2022-09-12T11:21:13;4.65;;;2.67;;
23712;SDS011;12035;49.978;8.298;2022-09-12T11:26:33;3.90;;;2.75;;
23712;SDS011;12035;49.978;8.298;2022-09-12T11:31:49;5.25;;;3.30;;
23712;SDS011;12035;49.978;8.298;2022-09-12T11:37:25;5.10;;;2.90;;
23712;SDS011;12035;49.978;8.298;2022-09-12T11:42:35;4.68;;;2.90;;
23712;SDS011;12035;49.978;8.298;2022-09-12T11:47:37;3.08;;;2.22;;
23712;SDS011;12035;49.978;8.298;2022-09-12T11:52:36;4.38;;;2.53;;
23712;SDS011;12035;49.978;8.298;2022-09-12T11:57:35;4.18;;;2.50;;
23712;SDS011;12035;49.978;8.298;2022-09-12T12:02:40;4.07;;;2.63;;
23712;SDS011;12035;49.978;8.298;2022-09-12T12:07:49;3.95;;;2.75;;
23712;SDS011;12035;49.978;8.298;2022-09-12T12:12:49;5.78;;;2.85;;
23712;SDS011;12035;49.978;8.298;2022-09-12T12:17:59;3.63;;;2.72;;
23712;SDS011;12035;49.978;8.298;2022-09-12T12:23:00;4.43;;;2.60;;
23712;SDS011;12035;49.978;8.298;2022-09-12T12:27:58;3.88;;;2.60;;
23712;SDS011;12035;49.978;8.298;2022-09-12T12:32:57;4.18;;;2.55;;
23712;SDS011;12035;49.978;8.298;2022-09-12T12:37:57;4.50;;;2.40;;
23712;SDS011;12035;49.978;8.298;2022-09-12T12:48:27;7.22;;;2.40;;
23712;SDS011;12035;49.978;8.298;2022-09-12T12:53:29;3.50;;;2.80;;
23712;SDS011;12035;49.978;8.298;2022-09-12T12:58:27;3.80;;;2.08;;
23712;SDS011;12035;49.978;8.298;2022-09-12T13:03:30;2.10;;;1.70;;
23712;SDS011;12035;49.978;8.298;2022-09-12T13:08:29;3.40;;;1.73;;
23712;SDS011;12035;49.978;8.298;2022-09-12T13:13:30;3.25;;;2.08;;
23712;SDS011;12035;49.978;8.298;2022-09-12T13:18:38;6.18;;;1.85;;
23712;SDS011;12035;49.978;8.298;2022-09-12T13:23:38;2.97;;;1.90;;
23712;SDS011;12035;49.978;8.298;2022-09-12T13:28:36;4.45;;;1.70;;
23712;SDS011;12035;49.978;8.298;2022-09-12T13:33:36;1.98;;;1.30;;
23712;SDS011;12035;49.978;8.298;2022-09-12T13:38:41;4.63;;;1.63;;
23712;SDS011;12035;49.978;8.298;2022-09-12T13:43:49;2.17;;;1.25;;
23712;SDS011;12035;49.978;8.298;2022-09-12T13:48:48;2.97;;;1.60;;
23712;SDS011;12035;49.978;8.298;2022-09-12T13:53:46;2.65;;;1.55;;
23712;SDS011;12035;49.978;8.298;2022-09-12T13:58:51;2.40;;;1.50;;
23712;SDS011;12035;49.978;8.298;2022-09-12T14:03:52;2.60;;;1.65;;
23712;SDS011;12035;49.978;8.298;2022-09-12T14:09:21;2.53;;;1.95;;
23712;SDS011;12035;49.978;8.298;2022-09-12T14:14:24;2.10;;;1.45;;
23712;SDS011;12035;49.978;8.298;2022-09-12T14:19:28;3.05;;;1.67;;
23712;SDS011;12035;49.978;8.298;2022-09-12T14:24:28;3.20;;;1.73;;
23712;SDS011;12035;49.978;8.298;2022-09-12T14:29:26;2.47;;;1.60;;
23712;SDS011;12035;49.978;8.298;2022-09-12T14:34:24;2.50;;;1.80;;
23712;SDS011;12035;49.978;8.298;2022-09-12T14:39:23;3.13;;;1.90;;
23712;SDS011;12035;49.978;8.298;2022-09-12T14:44:25;2.40;;;1.92;;
23712;SDS011;12035;49.978;8.298;2022-09-12T14:49:29;3.30;;;1.83;;
23712;SDS011;12035;49.978;8.298;2022-09-12T14:54:37;3.63;;;2.03;;
23712;SDS011;12035;49.978;8.298;2022-09-12T14:59:37;2.78;;;1.95;;
23712;SDS011;12035;49.978;8.298;2022-09-12T15:04:36;2.85;;;2.08;;
23712;SDS011;12035;49.978;8.298;2022-09-12T15:09:33;3.20;;;1.90;;
23712;SDS011;12035;49.978;8.298;2022-09-12T15:14:32;2.75;;;1.80;;
23712;SDS011;12035;49.978;8.298;2022-09-12T15:19:29;3.95;;;1.92;;
23712;SDS011;12035;49.978;8.298;2022-09-12T15:24:26;3.10;;;1.90;;
23712;SDS011;12035;49.978;8.298;2022-09-12T15:29:23;3.60;;;1.77;;
23712;SDS011;12035;49.978;8.298;2022-09-12T15:34:22;2.40;;;1.83;;
23712;SDS011;12035;49.978;8.298;2022-09-12T15:39:19;2.88;;;1.50;;
23712;SDS011;12035;49.978;8.298;2022-09-12T15:44:17;3.13;;;1.83;;
23712;SDS011;12035;49.978;8.298;2022-09-12T15:49:14;3.13;;;1.77;;
23712;SDS011;12035;49.978;8.298;2022-09-12T15:54:15;2.47;;;1.90;;
23712;SDS011;12035;49.978;8.298;2022-09-12T15:59:16;2.75;;;1.88;;
23712;SDS011;12035;49.978;8.298;2022-09-12T16:04:18;3.35;;;1.83;;
23712;SDS011;12035;49.978;8.298;2022-09-12T16:09:20;4.95;;;1.70;;
23712;SDS011;12035;49.978;8.298;2022-09-12T16:14:18;2.08;;;1.50;;
23712;SDS011;12035;49.978;8.298;2022-09-12T16:19:15;2.10;;;1.58;;
23712;SDS011;12035;49.978;8.298;2022-09-12T16:24:12;3.10;;;1.63;;
23712;SDS011;12035;49.978;8.298;2022-09-12T16:29:12;3.13;;;1.60;;
23712;SDS011;12035;49.978;8.298;2022-09-12T16:34:09;1.85;;;1.30;;
23712;SDS011;12035;49.978;8.298;2022-09-12T16:39:07;2.63;;;1.40;;
23712;SDS011;12035;49.978;8.298;2022-09-12T16:44:04;1.92;;;1.30;;
23712;SDS011;12035;49.978;8.298;2022-09-12T16:49:03;1.92;;;1.30;;
23712;SDS011;12035;49.978;8.298;2022-09-12T16:54:01;2.55;;;1.35;;
23712;SDS011;12035;49.978;8.298;2022-09-12T16:58:59;2.30;;;1.40;;
23712;SDS011;12035;49.978;8.298;2022-09-12T17:03:58;3.97;;;1.58;;
23712;SDS011;12035;49.978;8.298;2022-09-12T17:08:58;5.38;;;1.40;;
23712;SDS011;12035;49.978;8.298;2022-09-12T17:13:59;5.25;;;1.40;;
23712;SDS011;12035;49.978;8.298;2022-09-12T17:18:57;2.55;;;1.65;;
23712;SDS011;12035;49.978;8.298;2022-09-12T17:23:55;4.00;;;1.63;;
23712;SDS011;12035;49.978;8.298;2022-09-12T17:28:54;4.60;;;1.90;;
23712;SDS011;12035;49.978;8.298;2022-09-12T17:33:54;3.78;;;1.70;;
23712;SDS011;12035;49.978;8.298;2022-09-12T17:38:52;5.45;;;1.83;;
23712;SDS011;12035;49.978;8.298;2022-09-12T17:43:52;2.60;;;1.63;;
23712;SDS011;12035;49.978;8.298;2022-09-12T17:48:51;2.90;;;1.80;;
23712;SDS011;12035;49.978;8.298;2022-09-12T17:53:55;2.40;;;1.60;;
23712;SDS011;12035;49.978;8.298;2022-09-12T17:58:56;7.82;;;2.03;;
23712;SDS011;12035;49.978;8.298;2022-09-12T18:03:56;2.30;;;1.63;;
23712;SDS011;12035;49.978;8.298;2022-09-12T18:08:57;3.33;;;1.75;;
23712;SDS011;12035;49.978;8.298;2022-09-12T18:14:04;3.03;;;1.80;;
23712;SDS011;12035;49.978;8.298;2022-09-12T18:19:04;2.70;;;1.52;;
23712;SDS011;12035;49.978;8.298;2022-09-12T18:24:01;4.45;;;2.30;;
23712;SDS011;12035;49.978;8.298;2022-09-12T18:29:01;3.35;;;2.30;;
23712;SDS011;12035;49.978;8.298;2022-09-12T18:33:58;3.40;;;2.30;;
23712;SDS011;12035;49.978;8.298;2022-09-12T18:38:57;4.88;;;2.50;;
23712;SDS011;12035;49.978;8.298;2022-09-12T18:43:56;4.78;;;2.55;;
23712;SDS011;12035;49.978;8.298;2022-09-12T18:48:56;4.35;;;2.65;;
23712;SDS011;12035;49.978;8.298;2022-09-12T18:53:54;3.60;;;2.10;;
23712;SDS011;12035;49.978;8.298;2022-09-12T18:58:54;3.33;;;2.10;;
23712;SDS011;12035;49.978;8.298;2022-09-12T19:03:52;4.07;;;2.03;;
23712;SDS011;12035;49.978;8.298;2022-09-12T19:08:52;3.70;;;2.03;;
23712;SDS011;12035;49.978;8.298;2022-09-12T19:13:53;3.55;;;2.40;;
23712;SDS011;12035;49.978;8.298;2022-09-12T19:18:51;6.88;;;2.78;;
23712;SDS011;12035;49.978;8.298;2022-09-12T19:23:56;3.78;;;2.30;;
23712;SDS011;12035;49.978;8.298;2022-09-12T19:28:57;4.28;;;2.63;;
23712;SDS011;12035;49.978;8.298;2022-09-12T19:33:57;3.83;;;2.53;;
23712;SDS011;12035;49.978;8.298;2022-09-12T19:38:59;3.88;;;2.40;;
23712;SDS011;12035;49.978;8.298;2022-09-12T19:43:58;3.83;;;2.30;;
23712;SDS011;12035;49.978;8.298;2022-09-12T19:48:57;4.90;;;2.17;;
23712;SDS011;12035;49.978;8.298;2022-09-12T19:53:55;5.20;;;2.25;;
23712;SDS011;12035;49.978;8.298;2022-09-12T19:58:53;3.22;;;2.10;;
23712;SDS011;12035;49.978;8.298;2022-09-12T20:03:51;3.60;;;2.47;;
23712;SDS011;12035;49.978;8.298;2022-09-12T20:08:48;4.47;;;2.65;;
23712;SDS011;12035;49.978;8.298;2022-09-12T20:13:48;5.10;;;2.70;;
23712;SDS011;12035;49.978;8.298;2022-09-12T20:18:46;4.03;;;2.60;;
23712;SDS011;12035;49.978;8.298;2022-09-12T20:23:44;5.20;;;2.90;;
23712;SDS011;12035;49.978;8.298;2022-09-12T20:28:44;3.88;;;2.53;;
23712;SDS011;12035;49.978;8.298;2022-09-12T20:33:42;5.18;;;2.60;;
23712;SDS011;12035;49.978;8.298;2022-09-12T20:38:45;4.47;;;2.83;;
23712;SDS011;12035;49.978;8.298;2022-09-12T20:43:43;3.63;;;2.45;;
23712;SDS011;12035;49.978;8.298;2022-09-12T20:48:40;4.03;;;2.75;;
23712;SDS011;12035;49.978;8.298;2022-09-12T20:53:37;6.47;;;2.90;;
23712;SDS011;12035;49.978;8.298;2022-09-12T20:58:36;5.03;;;2.92;;
23712;SDS011;12035;49.978;8.298;2022-09-12T21:03:40;4.80;;;3.15;;
23712;SDS011;12035;49.978;8.298;2022-09-12T21:08:38;4.65;;;2.72;;
23712;SDS011;12035;49.978;8.298;2022-09-12T21:13:37;5.15;;;2.90;;
23712;SDS011;12035;49.978;8.298;2022-09-12T21:18:35;5.45;;;3.45;;
23712;SDS011;12035;49.978;8.298;2022-09-12T21:23:32;3.97;;;2.80;;
23712;SDS011;12035;49.978;8.298;2022-09-12T21:28:30;4.80;;;3.05;;
23712;SDS011;12035;49.978;8.298;2022-09-12T21:33:28;5.93;;;3.10;;
23712;SDS011;12035;49.978;8.298;2022-09-12T21:38:25;5.93;;;2.80;;
23712;SDS011;12035;49.978;8.298;2022-09-12T21:43:22;6.55;;;3.20;;
23712;SDS011;12035;49.978;8.298;2022-09-12T21:48:19;7.18;;;2.85;;
23712;SDS011;12035;49.978;8.298;2022-09-12T21:53:18;3.47;;;2.55;;
23712;SDS011;12035;49.978;8.298;2022-09-12T21:58:15;4.00;;;3.00;;
23712;SDS011;12035;49.978;8.298;2022-09-12T22:03:15;3.40;;;2.45;;
23712;SDS011;12035;49.978;8.298;2022-09-12T22:08:12;6.20;;;2.50;;
23712;SDS011;12035;49.978;8.298;2022-09-12T22:13:11;6.53;;;3.15;;
23712;SDS011;12035;49.978;8.298;2022-09-12T22:18:08;6.82;;;3.17;;
23712;SDS011;12035;49.978;8.298;2022-09-12T22:23:06;5.45;;;2.72;;
23712;SDS011;12035;49.978;8.298;2022-09-12T22:28:24;4.72;;;2.72;;
23712;SDS011;12035;49.978;8.298;2022-09-12T22:33:21;3.92;;;2.85;;
23712;SDS011;12035;49.978;8.298;2022-09-12T22:38:18;4.60;;;2.80;;
23712;SDS011;12035;49.978;8.298;2022-09-12T22:43:16;7.63;;;3.15;;
23712;SDS011;12035;49.978;8.298;2022-09-12T22:48:14;6.13;;;3.38;;
23712;SDS011;12035;49.978;8.298;2022-09-12T22:53:12;4.30;;;2.90;;
23712;SDS011;12035;49.978;8.298;2022-09-12T22:58:09;6.85;;;3.17;;
23712;SDS011;12035;49.978;8.298;2022-09-12T23:03:06;4.75;;;2.97;;
23712;SDS011;12035;49.978;8.298;2022-09-12T23:08:05;4.60;;;3.08;;
23712;SDS011;12035;49.978;8.298;2022-09-12T23:13:02;5.47;;;3.40;;
23712;SDS011;12035;49.978;8.298;2022-09-12T23:17:59;5.20;;;3.13;;
23712;SDS011;12035;49.978;8.298;2022-09-12T23:22:57;4.60;;;2.72;;
23712;SDS011;12035;49.978;8.298;2022-09-12T23:27:55;5.82;;;3.30;;
23712;SDS011;12035;49.978;8.298;2022-09-12T23:32:52;4.93;;;3.22;;
23712;SDS011;12035;49.978;8.298;2022-09-12T23:37:52;4.85;;;3.25;;
23712;SDS011;12035;49.978;8.298;2022-09-12T23:42:50;4.15;;;2.97;;
23712;SDS011;12035;49.978;8.298;2022-09-12T23:47:50;4.70;;;2.85;;
23712;SDS011;12035;49.978;8.298;2022-09-12T23:52:49;3.40;;;2.60;;
23712;SDS011;12035;49.978;8.298;2022-09-12T23:57:46;4.20;;;3.33;;
